Time;durP1;ratioP1;P1;durP2;ratioP2;P2;SDS_P1;SDS_P2;PMS_P1;PMS_P2;Temp;Humidity;BMP_temperature;BMP_pressure;BME280_temperature;BME280_humidity;BME280_pressure;Samples;Min_cycle;Max_cycle;Signal;HPM_P1;HPM_P2
2022/04/01 00:00:13;;;;;;;23.45;10.35;;;;;;;2.59;90.05;91857.25;5031007;28;20048;-55
2022/04/01 00:02:41;;;;;;;25.23;10.95;;;;;;;2.50;90.46;91859.00;5030872;28;20045;-47
2022/04/01 00:05:08;;;;;;;23.40;10.57;;;;;;;2.64;90.02;91855.28;5029925;28;20819;-45
2022/04/01 00:07:35;;;;;;;22.67;9.95;;;;;;;2.76;89.29;91857.34;5030795;28;20095;-46
2022/04/01 00:10:03;;;;;;;23.20;9.70;;;;;;;2.59;89.47;91856.50;5029589;28;20063;-51
2022/04/01 00:12:30;;;;;;;23.17;10.45;;;;;;;2.64;89.15;91856.03;5030576;28;20059;-48
2022/04/01 00:14:57;;;;;;;21.40;9.18;;;;;;;2.61;89.54;91867.69;5015757;28;20045;-49
2022/04/01 00:17:24;;;;;;;24.93;10.33;;;;;;;2.73;89.13;91860.88;5009654;28;20057;-48
2022/04/01 00:19:51;;;;;;;24.42;10.57;;;;;;;2.73;89.13;91858.19;5009960;28;20049;-47
2022/04/01 00:22:17;;;;;;;24.00;9.95;;;;;;;2.74;88.59;91865.91;5010933;28;20124;-53
2022/04/01 00:24:46;;;;;;;23.17;10.38;;;;;;;2.68;88.49;91862.13;5010438;28;20487;-49
2022/04/01 00:27:12;;;;;;;24.33;10.77;;;;;;;2.62;89.19;91860.31;5010653;28;20052;-48
2022/04/01 00:29:39;;;;;;;21.90;9.40;;;;;;;2.74;88.50;91863.19;5010807;28;20048;-47
2022/04/01 00:32:06;;;;;;;23.98;10.23;;;;;;;2.94;88.06;91857.00;5009797;28;20934;-51
2022/04/01 00:34:36;;;;;;;19.83;8.73;;;;;;;2.79;87.76;91859.97;5010693;28;20487;-46
2022/04/01 00:37:03;;;;;;;23.65;9.77;;;;;;;2.95;87.86;91856.56;5010257;28;20076;-47
2022/04/01 00:39:31;;;;;;;24.33;10.88;;;;;;;2.75;88.19;91858.53;5010676;28;20049;-48
2022/04/01 00:42:02;;;;;;;23.50;9.57;;;;;;;2.74;88.40;91854.31;5010260;28;20049;-45
2022/04/01 00:44:33;;;;;;;23.80;10.40;;;;;;;2.59;88.80;91857.25;5010542;28;20103;-51
2022/04/01 00:47:08;;;;;;;26.52;10.98;;;;;;;2.48;88.80;91856.69;5009739;28;20422;-54
2022/04/01 00:49:35;;;;;;;26.55;11.45;;;;;;;2.49;89.57;91860.94;5010456;28;20046;-55
2022/04/01 00:52:06;;;;;;;25.98;10.90;;;;;;;2.53;89.08;91848.09;5010025;28;20495;-48
2022/04/01 00:54:35;;;;;;;26.50;11.30;;;;;;;2.39;89.66;91856.47;5010615;28;20041;-51
2022/04/01 00:57:03;;;;;;;28.25;11.80;;;;;;;2.43;89.98;91854.47;5010046;28;20052;-47
2022/04/01 00:59:32;;;;;;;28.08;11.23;;;;;;;2.49;89.71;91843.94;5010510;28;20482;-53
2022/04/01 01:02:00;;;;;;;26.85;10.95;;;;;;;2.55;89.14;91850.38;5009926;28;20049;-52
2022/04/01 01:04:27;;;;;;;28.40;11.75;;;;;;;2.58;89.38;91844.16;5010332;28;20053;-49
2022/04/01 01:06:56;;;;;;;27.77;11.17;;;;;;;2.65;88.80;91854.06;5017661;28;20045;-48
2022/04/01 01:09:25;;;;;;;26.50;11.02;;;;;;;2.65;89.00;91851.38;5030285;28;20050;-48
2022/04/01 01:11:53;;;;;;;27.02;11.48;;;;;;;2.70;88.44;91845.47;5029500;28;20475;-51
2022/04/01 01:14:33;;;;;;;27.73;11.10;;;;;;;2.45;89.41;91848.63;5024533;28;20064;-52
2022/04/01 01:17:02;;;;;;;22.65;9.65;;;;;;;2.72;88.51;91846.59;5009830;28;20046;-52
2022/04/01 01:19:32;;;;;;;23.17;10.10;;;;;;;2.54;88.34;91846.91;5010207;28;20056;-49
2022/04/01 01:21:59;;;;;;;22.88;9.80;;;;;;;2.58;88.72;91839.50;5012895;28;20042;-51
2022/04/01 01:24:27;;;;;;;24.73;10.77;;;;;;;2.34;88.69;91838.00;5014001;28;20062;-49
2022/04/01 01:26:55;;;;;;;25.05;11.45;;;;;;;2.35;89.24;91839.53;5013430;28;20054;-47
2022/04/01 01:29:27;;;;;;;26.80;10.65;;;;;;;2.53;89.46;91842.66;5012495;28;20049;-49
2022/04/01 01:31:56;;;;;;;23.57;10.33;;;;;;;2.70;88.50;91832.69;5013506;28;20685;-46
2022/04/01 01:34:23;;;;;;;25.60;11.15;;;;;;;2.50;88.44;91826.50;5013733;28;20054;-48
2022/04/01 01:36:51;;;;;;;23.98;9.68;;;;;;;2.50;89.34;91829.22;5012948;28;20091;-52
2022/04/01 01:39:19;;;;;;;24.67;10.35;;;;;;;2.43;89.44;91830.09;5013794;28;20050;-48
2022/04/01 01:41:49;;;;;;;26.05;10.70;;;;;;;2.47;88.87;91828.09;5013050;28;20053;-55
2022/04/01 01:44:18;;;;;;;26.83;11.17;;;;;;;2.51;88.99;91834.19;5013661;28;20049;-48
2022/04/01 01:46:45;;;;;;;26.80;10.82;;;;;;;2.45;89.31;91835.88;5013033;28;20045;-48
2022/04/01 01:49:12;;;;;;;24.92;11.07;;;;;;;2.52;88.98;91829.56;5012345;28;20127;-51
2022/04/01 01:54:44;;;;;;;29.25;12.70;;;;;;;2.48;88.63;91824.22;5012508;28;20873;-52
2022/04/01 01:57:18;;;;;;;28.50;11.80;;;;;;;2.45;89.14;91818.88;5012488;28;20926;-49
2022/04/01 01:59:45;;;;;;;29.50;12.68;;;;;;;2.30;89.62;91823.78;5012862;28;20042;-49
2022/04/01 02:02:11;;;;;;;26.85;11.82;;;;;;;2.57;89.34;91821.72;5013246;28;20063;-50
2022/04/01 02:04:40;;;;;;;30.05;13.35;;;;;;;2.53;88.51;91828.38;5013077;28;20131;-54
2022/04/01 02:07:08;;;;;;;28.45;12.38;;;;;;;2.54;88.76;91827.97;5021957;28;21572;-49
2022/04/01 02:09:35;;;;;;;27.93;11.57;;;;;;;2.63;87.47;91824.69;5032943;28;20045;-48
2022/04/01 02:12:03;;;;;;;28.45;11.68;;;;;;;2.54;88.10;91827.97;5031203;28;20045;-50
2022/04/01 02:14:30;;;;;;;28.02;12.18;;;;;;;2.70;88.53;91827.28;5026528;28;20112;-51
2022/04/01 02:16:57;;;;;;;29.52;12.18;;;;;;;2.68;87.77;91821.53;5012528;28;20053;-45
2022/04/01 02:19:25;;;;;;;28.08;12.02;;;;;;;2.49;88.60;91817.59;5011506;28;20038;-46
2022/04/01 02:21:53;;;;;;;31.17;12.63;;;;;;;2.59;88.24;91815.88;5012301;28;20731;-45
2022/04/01 02:24:21;;;;;;;28.02;11.55;;;;;;;2.61;87.74;91816.22;5012959;28;20038;-49
2022/04/01 02:26:49;;;;;;;29.73;12.52;;;;;;;2.39;88.57;91810.47;5012299;28;20056;-46
2022/04/01 02:29:20;;;;;;;27.75;11.63;;;;;;;2.42;88.56;91819.72;5012581;28;20050;-47
2022/04/01 02:31:50;;;;;;;30.33;12.75;;;;;;;2.33;88.36;91810.16;5043686;28;20046;-45
2022/04/01 02:34:21;;;;;;;29.10;11.37;;;;;;;2.47;88.18;91816.50;5012768;28;20049;-50
2022/04/01 02:36:48;;;;;;;27.00;11.50;;;;;;;2.49;87.68;91812.19;5012195;28;20054;-50
2022/04/01 02:39:15;;;;;;;27.70;11.15;;;;;;;2.51;87.25;91815.25;5012815;28;20495;-53
2022/04/01 02:41:42;;;;;;;30.17;12.05;;;;;;;2.38;87.97;91825.19;5012276;28;20766;-46
2022/04/01 02:44:09;;;;;;;29.17;11.85;;;;;;;2.43;88.11;91815.81;5012514;28;20048;-45
2022/04/01 02:46:44;;;;;;;30.50;12.20;;;;;;;2.42;88.08;91814.28;5012540;28;20046;-51
2022/04/01 02:49:16;;;;;;;30.13;11.77;;;;;;;2.44;88.39;91817.34;5011515;28;20056;-49
2022/04/01 02:51:45;;;;;;;31.08;12.05;;;;;;;2.42;88.48;91808.88;5011768;28;20042;-48
2022/04/01 02:54:12;;;;;;;29.98;12.57;;;;;;;2.38;88.80;91812.41;5012032;28;20083;-46
2022/04/01 02:56:40;;;;;;;32.33;11.93;;;;;;;2.39;88.96;91816.66;5010888;28;20037;-49
2022/04/01 02:59:08;;;;;;;27.63;11.20;;;;;;;2.29;89.02;91823.00;5011198;28;20673;-47
2022/04/01 03:01:36;;;;;;;30.73;12.00;;;;;;;2.49;88.92;91817.59;5012182;28;20053;-50
2022/04/01 03:04:04;;;;;;;31.42;11.88;;;;;;;2.40;89.01;91814.69;5011783;28;20068;-51
2022/04/01 03:06:33;;;;;;;31.73;11.90;;;;;;;2.53;88.97;91818.31;5016684;28;20037;-51
2022/04/01 03:09:00;;;;;;;30.83;12.23;;;;;;;2.56;88.68;91820.19;5031169;28;20050;-46
2022/04/01 03:11:27;;;;;;;32.57;12.53;;;;;;;2.40;89.08;91810.03;5030695;28;20477;-48
2022/04/01 03:13:53;;;;;;;34.70;13.65;;;;;;;2.43;89.47;91815.81;5031275;28;20041;-49
2022/04/01 03:16:20;;;;;;;32.00;13.15;;;;;;;2.35;89.17;91820.59;5031772;28;20053;-46
2022/04/01 03:18:47;;;;;;;30.75;12.48;;;;;;;2.31;89.55;91819.88;5013012;28;20057;-45
2022/04/01 03:21:14;;;;;;;33.28;11.70;;;;;;;2.44;89.02;91820.81;5031407;28;20045;-55
2022/04/01 03:23:43;;;;;;;32.13;12.40;;;;;;;2.54;88.75;91817.13;5029692;28;20049;-50
2022/04/01 03:26:11;;;;;;;30.92;12.57;;;;;;;2.50;89.03;91812.97;5031424;28;20056;-48
2022/04/01 03:28:38;;;;;;;27.65;11.80;;;;;;;2.39;88.99;91822.06;5031476;28;20042;-51
2022/04/01 03:31:06;;;;;;;31.25;12.07;;;;;;;2.27;89.85;91830.00;5031038;28;20034;-52
2022/04/01 03:33:34;;;;;;;32.00;11.77;;;;;;;2.23;90.54;91823.91;5031368;28;20046;-45
2022/04/01 03:36:01;;;;;;;32.70;12.47;;;;;;;2.34;90.69;91819.81;5029574;28;25313;-48
2022/04/01 03:38:28;;;;;;;27.85;11.13;;;;;;;2.23;90.52;91816.53;5030073;28;20433;-47
2022/04/01 03:40:55;;;;;;;30.92;12.27;;;;;;;2.16;91.04;91824.81;5030679;28;20052;-46
2022/04/01 03:43:24;;;;;;;30.20;11.88;;;;;;;2.34;90.43;91824.47;5030976;28;20482;-46
2022/04/01 03:45:53;;;;;;;31.23;12.93;;;;;;;2.20;91.34;91820.09;5030745;28;20409;-47
2022/04/01 03:48:33;;;;;;;28.37;11.17;;;;;;;2.25;91.38;91825.00;5031206;28;20453;-49
2022/04/01 03:51:00;;;;;;;23.95;9.45;;;;;;;2.23;90.78;91824.66;5030433;28;20045;-50
2022/04/01 03:53:29;;;;;;;18.95;8.00;;;;;;;2.29;90.67;91823.00;5031227;28;20045;-45
2022/04/01 03:55:58;;;;;;;18.83;8.30;;;;;;;2.38;90.17;91825.94;5030428;28;20406;-45
2022/04/01 03:58:30;;;;;;;19.00;8.30;;;;;;;2.32;90.05;91834.97;5030682;28;20049;-49
2022/04/01 04:01:00;;;;;;;17.97;7.43;;;;;;;2.18;90.22;91828.63;5030408;28;20045;-51
2022/04/01 04:03:29;;;;;;;16.10;7.80;;;;;;;2.23;90.19;91832.78;5020704;28;20073;-52
2022/04/01 04:05:57;;;;;;;18.85;8.27;;;;;;;2.45;89.93;91827.00;5024975;28;20057;-51
2022/04/01 04:08:26;;;;;;;18.73;8.02;;;;;;;2.39;89.24;91821.28;5026225;28;20049;-51
2022/04/01 04:10:53;;;;;;;17.83;8.35;;;;;;;2.40;89.56;91823.56;5030012;28;20046;-51
2022/04/01 04:13:25;;;;;;;18.63;8.27;;;;;;;2.16;89.65;91825.56;5029539;28;20061;-51
2022/04/01 04:16:04;;;;;;;19.40;8.32;;;;;;;2.18;89.91;91823.19;5028787;28;20071;-48
2022/04/01 04:18:45;;;;;;;19.42;8.70;;;;;;;2.31;89.26;91828.00;5030231;28;20055;-47
2022/04/01 04:21:39;;;;;;;18.25;8.07;;;;;;;2.27;89.56;91827.31;5029789;28;20175;-52
2022/04/01 04:24:07;;;;;;;18.42;7.55;;;;;;;2.28;89.55;91831.56;5030084;28;20041;-47
2022/04/01 04:26:44;;;;;;;18.57;8.23;;;;;;;2.15;89.48;91832.16;5029247;28;20050;-47
2022/04/01 04:29:13;;;;;;;19.77;8.43;;;;;;;2.23;90.15;91835.47;5029473;28;21486;-47
2022/04/01 04:32:04;;;;;;;20.60;7.57;;;;;;;2.26;90.03;91831.97;5030376;28;20433;-46
2022/04/01 04:34:38;;;;;;;18.70;7.90;;;;;;;2.23;90.28;91835.47;5029659;28;21777;-53
2022/04/01 04:37:09;;;;;;;18.08;7.90;;;;;;;2.22;90.10;91833.97;5029931;28;20506;-46
2022/04/01 04:39:36;;;;;;;15.37;7.20;;;;;;;2.25;89.62;91841.25;5029875;28;20162;-48
2022/04/01 04:42:05;;;;;;;19.33;7.68;;;;;;;2.21;89.83;91840.53;5028363;28;20041;-51
2022/04/01 04:44:33;;;;;;;18.10;7.75;;;;;;;2.18;90.01;91834.03;5030065;28;20068;-50
2022/04/01 04:47:05;;;;;;;18.33;7.47;;;;;;;2.32;89.81;91841.13;5029289;28;20061;-50
2022/04/01 04:49:32;;;;;;;15.48;6.53;;;;;;;2.34;89.27;91846.91;5028706;28;20049;-52
2022/04/01 04:51:59;;;;;;;13.97;6.10;;;;;;;2.33;89.58;91841.88;5029633;28;20199;-52
2022/04/01 04:54:26;;;;;;;14.48;6.20;;;;;;;2.31;89.28;91842.28;5029869;28;20107;-53
2022/04/01 04:56:54;;;;;;;16.90;6.88;;;;;;;2.14;89.73;91841.44;5032510;28;20041;-49
2022/04/01 04:59:22;;;;;;;17.58;7.70;;;;;;;2.02;90.25;91846.69;5034124;28;20050;-48
2022/04/01 05:01:56;;;;;;;29.15;11.73;;;;;;;1.98;90.59;91846.75;5031913;28;20065;-45
2022/04/01 05:04:52;;;;;;;35.90;12.70;;;;;;;2.12;90.79;91848.44;5034251;28;20048;-49
2022/04/01 05:07:44;;;;;;;23.80;9.73;;;;;;;2.11;90.18;91855.03;5032979;28;20868;-48
2022/04/01 05:10:16;;;;;;;22.60;10.00;;;;;;;2.14;90.57;91857.69;5032862;28;20577;-50
2022/04/01 05:13:02;;;;;;;20.42;8.80;;;;;;;2.10;90.77;91859.69;5033426;28;20052;-52
2022/04/01 05:15:36;;;;;;;18.40;8.05;;;;;;;2.15;90.34;91859.22;5033507;28;20151;-51
2022/04/01 05:18:06;;;;;;;16.57;7.37;;;;;;;2.16;90.31;91862.69;5032715;28;20041;-51
2022/04/01 05:20:38;;;;;;;17.83;7.32;;;;;;;2.33;90.03;91863.53;5033990;28;20099;-53
2022/04/01 05:23:11;;;;;;;16.58;7.72;;;;;;;2.25;89.94;91868.31;5033482;28;20121;-53
2022/04/01 05:25:43;;;;;;;15.07;6.60;;;;;;;2.11;89.98;91873.97;5033463;28;20051;-51
2022/04/01 05:28:25;;;;;;;12.80;5.90;;;;;;;2.20;89.32;91872.25;5031397;28;20187;-52
2022/04/01 05:31:18;;;;;;;14.83;6.17;;;;;;;2.16;89.45;91874.25;5033068;28;20059;-50
2022/04/01 05:34:17;;;;;;;14.05;6.35;;;;;;;2.17;89.39;91877.72;5031680;28;20041;-51
2022/04/01 05:36:44;;;;;;;15.70;6.43;;;;;;;2.13;89.65;91880.50;5011322;28;20060;-51
2022/04/01 05:39:12;;;;;;;14.15;6.70;;;;;;;2.16;90.00;91879.69;5033114;28;20044;-51
2022/04/01 05:41:40;;;;;;;14.75;6.15;;;;;;;2.15;89.33;91880.88;5033572;28;20049;-50
2022/04/01 05:44:09;;;;;;;15.30;6.63;;;;;;;2.13;88.98;91879.72;5014980;28;20038;-49
2022/04/01 05:46:37;;;;;;;16.77;6.80;;;;;;;2.09;88.98;91879.03;5033364;28;20057;-51
2022/04/01 05:49:05;;;;;;;14.70;6.22;;;;;;;2.26;88.63;91883.38;5032374;28;20047;-51
2022/04/01 05:51:33;;;;;;;14.48;6.22;;;;;;;2.27;88.08;91887.59;5033213;28;20045;-51
2022/04/01 05:54:01;;;;;;;15.40;6.53;;;;;;;2.37;88.00;91885.91;5032706;28;20505;-55
2022/04/01 05:56:31;;;;;;;14.37;6.33;;;;;;;2.30;87.48;91889.50;5033130;28;20414;-49
2022/04/01 05:58:58;;;;;;;14.30;6.15;;;;;;;2.42;86.70;91887.38;5032597;28;20045;-52
2022/04/01 06:01:47;;;;;;;15.75;6.93;;;;;;;2.32;86.79;91895.25;5026072;28;20061;-48
2022/04/01 06:04:28;;;;;;;14.77;6.55;;;;;;;2.33;86.19;91898.72;5031114;28;20045;-51
2022/04/01 06:07:08;;;;;;;14.15;6.22;;;;;;;2.39;86.43;91903.28;5031002;28;20052;-47
2022/04/01 06:09:42;;;;;;;15.10;6.77;;;;;;;2.40;86.70;91899.38;5028624;28;20038;-51
2022/04/01 06:12:29;;;;;;;14.82;6.22;;;;;;;2.50;85.49;91896.91;5030658;28;20824;-52
2022/04/01 06:15:17;;;;;;;14.73;6.63;;;;;;;2.33;85.65;91896.78;5030320;28;20049;-56
2022/04/01 06:18:08;;;;;;;16.08;7.13;;;;;;;2.23;86.80;91910.50;5031619;28;20049;-47
2022/04/01 06:20:38;;;;;;;14.98;6.60;;;;;;;2.20;86.77;91901.28;5032811;28;20050;-53
2022/04/01 06:23:14;;;;;;;14.10;6.43;;;;;;;2.42;86.27;91896.25;5031342;28;20038;-48
2022/04/01 06:25:47;;;;;;;13.82;6.50;;;;;;;2.40;85.62;91906.75;5031895;28;20045;-49
2022/04/01 06:28:24;;;;;;;13.50;6.10;;;;;;;2.39;86.94;91913.31;5032143;28;20041;-50
2022/04/01 06:30:54;;;;;;;14.93;6.43;;;;;;;2.50;86.79;91907.75;5032002;28;20072;-53
2022/04/01 06:33:37;;;;;;;9.90;4.78;;;;;;;2.52;85.71;91905.38;5031038;28;20103;-47
2022/04/01 06:36:06;;;;;;;9.90;4.47;;;;;;;2.58;85.60;91909.13;5030598;28;20041;-54
2022/04/01 06:38:40;;;;;;;9.90;4.57;;;;;;;2.55;86.00;91907.25;5032479;28;20474;-49
2022/04/01 06:41:14;;;;;;;10.48;4.80;;;;;;;2.54;85.69;91911.16;5029808;28;20041;-49
2022/04/01 06:43:40;;;;;;;8.57;4.40;;;;;;;2.64;84.64;91907.47;5032390;28;20047;-49
2022/04/01 06:46:08;;;;;;;10.68;5.15;;;;;;;2.61;84.62;91916.41;5031194;28;20833;-49
2022/04/01 06:48:35;;;;;;;10.00;5.37;;;;;;;2.66;85.26;91915.97;5032183;28;20522;-52
2022/04/01 06:51:02;;;;;;;10.93;5.45;;;;;;;2.71;85.46;91918.16;5031872;28;20056;-53
2022/04/01 06:53:29;;;;;;;9.20;4.38;;;;;;;2.75;84.23;91916.16;5032016;28;20044;-46
2022/04/01 06:55:56;;;;;;;7.43;4.10;;;;;;;2.77;84.71;91924.63;5031300;28;20045;-47
2022/04/01 06:58:26;;;;;;;8.93;4.72;;;;;;;2.84;84.05;91920.25;5031948;28;20054;-49
2022/04/01 07:00:53;;;;;;;7.57;4.50;;;;;;;2.77;83.88;91915.75;5031518;28;20049;-50
2022/04/01 07:03:20;;;;;;;7.22;3.90;;;;;;;2.84;83.50;91925.69;5031576;28;20053;-49
2022/04/01 07:05:47;;;;;;;8.68;4.35;;;;;;;2.73;83.25;91926.66;5031353;28;20057;-52
2022/04/01 07:08:16;;;;;;;7.80;4.05;;;;;;;2.75;83.78;91928.94;5030624;28;20049;-53
2022/04/01 07:10:45;;;;;;;8.13;4.68;;;;;;;2.79;84.60;91932.34;5030988;28;20409;-53
2022/04/01 07:13:12;;;;;;;8.13;4.10;;;;;;;2.76;83.29;91930.50;5031651;28;20433;-47
2022/04/01 07:15:39;;;;;;;7.68;3.92;;;;;;;2.67;84.09;91928.31;5031538;28;20041;-52
2022/04/01 07:18:07;;;;;;;6.63;3.75;;;;;;;2.48;84.00;91934.47;5028451;28;20830;-50
2022/04/01 07:20:34;;;;;;;6.28;3.28;;;;;;;2.53;84.54;91940.16;5031729;28;20043;-46
2022/04/01 07:23:01;;;;;;;6.38;3.50;;;;;;;2.62;84.82;91941.56;5031043;28;21007;-46
2022/04/01 07:25:28;;;;;;;6.77;3.90;;;;;;;2.70;84.57;91942.97;5013738;28;20045;-49
2022/04/01 07:27:55;;;;;;;5.20;2.60;;;;;;;2.72;84.33;91943.34;5029613;28;20159;-52
2022/04/01 07:30:22;;;;;;;5.38;2.90;;;;;;;2.72;84.13;91946.03;5031584;28;20063;-49
2022/04/01 07:32:54;;;;;;;5.90;2.85;;;;;;;2.78;83.39;91945.13;5025470;28;20042;-52
2022/04/01 07:35:22;;;;;;;5.75;3.20;;;;;;;2.62;84.46;91945.03;5020145;28;20123;-52
2022/04/01 07:37:49;;;;;;;6.13;3.30;;;;;;;2.53;84.25;91947.50;5030693;28;20054;-49
2022/04/01 07:40:19;;;;;;;7.97;3.78;;;;;;;2.60;85.14;91947.41;5030916;28;20051;-51
2022/04/01 07:42:48;;;;;;;7.20;3.92;;;;;;;2.93;84.81;91951.06;5030592;28;20050;-49
2022/04/01 07:45:15;;;;;;;7.47;3.10;;;;;;;2.94;82.77;91951.84;5031018;28;20053;-54
2022/04/01 07:47:44;;;;;;;6.85;3.53;;;;;;;2.83;81.88;91953.97;5030337;28;20060;-48
2022/04/01 07:50:13;;;;;;;6.50;3.33;;;;;;;2.89;83.51;91955.78;5031014;28;20037;-53
2022/04/01 07:52:42;;;;;;;6.93;3.50;;;;;;;3.01;82.24;91970.66;5030933;28;20080;-50
2022/04/01 07:55:12;;;;;;;6.22;3.40;;;;;;;2.80;83.14;91963.69;5029996;28;20079;-48
2022/04/01 07:57:39;;;;;;;7.53;3.83;;;;;;;2.74;83.20;91959.94;5030964;28;20049;-51
2022/04/01 08:00:14;;;;;;;8.90;4.55;;;;;;;2.54;84.43;91968.00;5030020;28;20737;-49
2022/04/01 08:02:41;;;;;;;7.93;3.63;;;;;;;2.67;84.23;91960.81;5030190;28;20045;-46
2022/04/01 08:05:09;;;;;;;10.25;5.43;;;;;;;2.67;84.45;91968.94;5030863;28;20041;-51
2022/04/01 08:07:36;;;;;;;7.00;4.03;;;;;;;2.74;84.46;91970.78;5030760;28;20052;-51
2022/04/01 08:10:04;;;;;;;6.90;3.08;;;;;;;2.52;84.29;91973.81;5030316;28;20045;-50
2022/04/01 08:12:39;;;;;;;5.32;3.13;;;;;;;2.77;84.57;91969.94;5030724;28;20045;-47
2022/04/01 08:15:07;;;;;;;5.20;2.80;;;;;;;2.74;83.53;91973.47;5028329;28;21772;-50
2022/04/01 08:17:34;;;;;;;4.30;2.45;;;;;;;2.80;83.08;91980.69;5030531;28;20099;-49
2022/04/01 08:20:01;;;;;;;5.55;2.42;;;;;;;2.62;84.18;91982.97;5029813;28;20632;-49
2022/04/01 08:22:28;;;;;;;3.70;2.05;;;;;;;2.68;82.63;91984.00;5030614;28;20053;-50
2022/04/01 08:24:55;;;;;;;4.65;2.30;;;;;;;2.87;82.18;91985.22;5030038;28;20045;-49
2022/04/01 08:27:22;;;;;;;6.87;2.53;;;;;;;2.99;82.17;91979.19;5030236;28;20053;-46
2022/04/01 08:29:48;;;;;;;3.78;2.08;;;;;;;2.76;81.47;91987.38;5029454;28;20088;-50
2022/04/01 08:32:15;;;;;;;3.85;1.95;;;;;;;2.67;82.82;91987.88;5028598;28;20044;-52
2022/04/01 08:34:42;;;;;;;6.57;3.03;;;;;;;2.32;84.22;91984.59;5020421;28;20103;-46
2022/04/01 08:37:09;;;;;;;5.47;2.70;;;;;;;2.46;83.89;91994.44;5029554;28;20048;-52
2022/04/01 08:39:36;;;;;;;6.50;3.50;;;;;;;2.28;84.38;91999.34;5030192;28;20049;-46
2022/04/01 08:42:04;;;;;;;7.55;3.83;;;;;;;2.38;84.56;92001.13;5029824;28;20041;-45
2022/04/01 08:44:31;;;;;;;7.20;3.35;;;;;;;2.27;85.13;92008.63;5030312;28;20047;-46
2022/04/01 08:46:58;;;;;;;7.30;3.70;;;;;;;2.20;85.01;92007.56;5029536;28;20053;-51
2022/04/01 08:49:25;;;;;;;4.65;2.50;;;;;;;2.27;83.99;92005.94;5030100;28;20045;-46
2022/04/01 08:51:53;;;;;;;5.53;2.87;;;;;;;2.17;85.32;92007.63;5029831;28;20064;-45
2022/04/01 08:54:19;;;;;;;5.68;2.78;;;;;;;2.37;84.16;92013.91;5030074;28;20068;-48
2022/04/01 08:56:46;;;;;;;12.40;6.28;;;;;;;2.53;83.40;92009.78;5029369;28;20065;-51
2022/04/01 08:59:13;;;;;;;11.00;5.32;;;;;;;2.14;83.53;92020.03;5030111;28;20034;-47
2022/04/01 09:01:44;;;;;;;8.25;4.30;;;;;;;2.56;84.19;92011.69;5030092;28;20047;-49
2022/04/01 09:04:21;;;;;;;13.53;6.67;;;;;;;2.33;84.21;92026.69;5029040;28;20302;-46
2022/04/01 09:06:50;;;;;;;10.95;5.50;;;;;;;2.37;84.38;92027.44;5029465;28;20041;-48
2022/04/01 09:09:27;;;;;;;13.48;7.38;;;;;;;2.24;84.79;92028.41;5030035;28;20397;-57
2022/04/01 09:12:12;;;;;;;9.75;4.70;;;;;;;2.07;84.66;92041.00;5029451;28;20498;-46
2022/04/01 09:14:41;;;;;;;10.55;4.88;;;;;;;2.31;84.58;92025.59;5030205;28;20046;-50
2022/04/01 09:17:11;;;;;;;9.47;5.00;;;;;;;2.64;83.82;92032.06;5028903;28;20568;-47
2022/04/01 09:19:41;;;;;;;9.15;4.75;;;;;;;2.50;83.61;92026.88;5029253;28;20641;-46
2022/04/01 09:22:14;;;;;;;10.38;5.15;;;;;;;2.62;83.37;92036.31;5029954;28;20133;-50
2022/04/01 09:24:54;;;;;;;10.27;5.68;;;;;;;2.48;83.17;92040.03;5029343;28;20064;-46
2022/04/01 09:27:42;;;;;;;10.93;5.00;;;;;;;2.66;81.86;92037.81;5030027;28;20063;-50
2022/04/01 09:30:21;;;;;;;12.10;6.17;;;;;;;2.33;83.35;92050.31;5029134;28;21667;-48
2022/04/01 09:32:49;;;;;;;10.73;5.20;;;;;;;2.67;81.99;92044.00;5027255;28;20067;-48
2022/04/01 09:35:22;;;;;;;11.43;5.57;;;;;;;3.07;81.54;92046.81;5012699;28;20429;-50
2022/04/01 09:37:52;;;;;;;11.30;5.47;;;;;;;2.77;81.30;92051.94;5009585;28;20052;-47
2022/04/01 09:40:21;;;;;;;11.40;5.88;;;;;;;2.56;80.42;92046.88;5009918;28;20037;-51
2022/04/01 09:42:54;;;;;;;12.30;6.10;;;;;;;2.89;81.45;92058.72;5012209;28;20072;-53
2022/04/01 09:45:25;;;;;;;14.02;6.95;;;;;;;3.16;79.72;92050.53;5013863;28;20042;-49
2022/04/01 09:48:09;;;;;;;15.35;7.93;;;;;;;3.53;79.53;92047.94;5013185;28;20049;-49
2022/04/01 09:50:42;;;;;;;14.85;7.63;;;;;;;3.37;79.84;92051.31;5013627;28;20042;-52
2022/04/01 09:53:14;;;;;;;18.15;9.63;;;;;;;2.79;80.14;92052.28;5012697;28;20064;-48
2022/04/01 09:55:46;;;;;;;13.87;7.77;;;;;;;3.48;79.90;92053.81;5013407;28;20037;-46
2022/04/01 09:58:15;;;;;;;17.10;9.35;;;;;;;3.53;78.01;92056.84;5012248;28;21840;-47
2022/04/01 10:00:44;;;;;;;14.82;7.50;;;;;;;3.05;79.72;92063.50;5013142;28;20465;-47
2022/04/01 10:03:12;;;;;;;16.75;8.65;;;;;;;3.11;79.53;92066.50;5013335;28;20038;-52
2022/04/01 10:05:40;;;;;;;12.02;6.10;;;;;;;3.38;81.01;92066.41;5013098;28;20056;-47
2022/04/01 10:08:11;;;;;;;11.03;5.90;;;;;;;3.31;78.92;92069.25;5029952;28;20115;-51
2022/04/01 10:10:40;;;;;;;11.57;6.20;;;;;;;3.66;78.26;92067.06;5032634;28;20053;-48
2022/04/01 10:13:17;;;;;;;11.32;5.90;;;;;;;3.81;77.85;92068.31;5031925;28;21923;-47
2022/04/01 10:15:44;;;;;;;10.30;5.28;;;;;;;3.56;78.29;92066.84;5032465;28;20069;-49
2022/04/01 10:18:33;;;;;;;11.05;6.50;;;;;;;3.64;76.63;92067.47;5032077;28;20080;-48
2022/04/01 10:21:01;;;;;;;18.40;9.63;;;;;;;2.77;80.22;92064.72;5030996;28;20056;-48
2022/04/01 10:23:28;;;;;;;9.20;4.90;;;;;;;3.34;79.13;92068.41;5032770;28;20046;-47
2022/04/01 10:26:03;;;;;;;16.60;8.50;;;;;;;3.35;80.30;92064.53;5031977;28;20048;-55
2022/04/01 10:28:30;;;;;;;11.85;6.05;;;;;;;3.64;78.81;92066.72;5032802;28;20465;-47
2022/04/01 10:30:59;;;;;;;14.52;9.23;;;;;;;3.78;77.33;92069.94;5032134;28;20056;-48
2022/04/01 10:33:31;;;;;;;5.87;3.00;;;;;;;3.51;76.77;92072.75;5031173;28;20074;-47
2022/04/01 10:35:58;;;;;;;5.20;2.65;;;;;;;3.55;77.19;92076.16;5031978;28;20050;-49
2022/04/01 10:38:31;;;;;;;12.55;7.03;;;;;;;3.52;77.75;92070.78;5031023;28;20051;-51
2022/04/01 10:41:11;;;;;;;7.53;4.10;;;;;;;3.67;78.27;92077.50;5031940;28;20049;-50
2022/04/01 10:43:42;;;;;;;10.52;5.43;;;;;;;3.29;79.13;92082.47;5032391;28;20072;-46
2022/04/01 10:46:15;;;;;;;6.37;2.93;;;;;;;3.70;78.12;92071.25;5031248;28;21643;-49
2022/04/01 10:52:00;;;;;;;6.47;3.55;;;;;;;3.65;77.17;92071.72;5031809;28;20042;-51
2022/04/01 10:54:27;;;;;;;5.20;3.03;;;;;;;3.72;78.27;92079.75;5031094;28;20044;-51
2022/04/01 10:57:00;;;;;;;5.18;2.80;;;;;;;3.51;78.18;92080.13;5031576;28;20052;-52
2022/04/01 10:59:36;;;;;;;4.83;2.60;;;;;;;3.58;77.25;92079.97;5031985;28;20046;-51
2022/04/01 11:02:07;;;;;;;4.35;2.17;;;;;;;3.79;76.89;92081.53;5031666;28;20033;-53
2022/04/01 11:04:37;;;;;;;5.82;2.70;;;;;;;3.87;77.97;92082.16;5032056;28;20049;-51
2022/04/01 11:07:10;;;;;;;5.28;2.70;;;;;;;4.04;77.47;92081.03;5031362;28;20045;-54
2022/04/01 11:09:55;;;;;;;4.55;2.35;;;;;;;3.88;75.97;92083.69;5031992;28;20178;-47
2022/04/01 11:12:32;;;;;;;6.03;2.73;;;;;;;3.93;76.64;92080.50;5031109;28;20655;-51
2022/04/01 11:17:35;;;;;;;6.50;3.40;;;;;;;3.46;78.24;92081.38;5020694;28;20050;-47
2022/04/01 11:20:13;;;;;;;5.80;3.10;;;;;;;3.73;79.55;92083.22;5026670;28;20093;-55
2022/04/01 11:22:59;;;;;;;6.68;3.40;;;;;;;3.43;78.33;92087.63;5031725;28;20045;-53
2022/04/01 11:25:31;;;;;;;8.37;4.30;;;;;;;3.22;80.10;92088.00;5030477;28;20644;-50
2022/04/01 11:27:57;;;;;;;8.00;4.57;;;;;;;2.99;79.16;92086.81;5031259;28;20103;-50
2022/04/01 11:30:31;;;;;;;7.38;4.20;;;;;;;3.56;79.43;92085.84;5031623;28;20050;-48
2022/04/01 11:33:02;;;;;;;10.23;5.53;;;;;;;3.19;78.60;92082.22;5029544;28;20041;-47
2022/04/01 11:35:36;;;;;;;13.13;6.60;;;;;;;3.33;80.11;92089.34;5030037;28;20045;-54
2022/04/01 11:38:03;;;;;;;8.97;5.03;;;;;;;3.59;78.80;92092.38;5030822;28;20525;-51
2022/04/01 11:40:32;;;;;;;11.18;5.53;;;;;;;3.84;78.09;92091.88;5030910;28;20137;-51
2022/04/01 11:43:11;;;;;;;11.85;6.60;;;;;;;3.71;77.01;92083.63;5030772;28;20063;-47
2022/04/01 11:45:47;;;;;;;10.75;5.45;;;;;;;3.56;77.84;92093.19;5029779;28;20047;-48
2022/04/01 11:48:16;;;;;;;10.70;5.30;;;;;;;3.55;76.77;92084.31;5030011;28;20045;-49
2022/04/01 11:50:49;;;;;;;8.23;4.20;;;;;;;3.73;76.69;92086.69;5030564;28;20057;-52
2022/04/01 11:53:20;;;;;;;10.95;6.25;;;;;;;3.66;76.76;92092.22;5029599;28;20151;-48
2022/04/01 11:55:47;;;;;;;15.88;9.63;;;;;;;3.58;77.02;92088.91;5030203;28;20483;-53
2022/04/01 11:58:14;;;;;;;10.68;6.40;;;;;;;3.59;79.49;92090.41;5030900;28;20474;-50